createdAt,value
2023-03-26T00:00:26.489Z,11.22
2023-03-26T00:05:49.786Z,13.47
2023-03-26T00:10:52.441Z,13.50
2023-03-26T00:15:55.510Z,11.46
2023-03-26T00:20:59.661Z,13.00
2023-03-26T00:26:03.704Z,13.61
2023-03-26T00:31:09.052Z,11.57
2023-03-26T00:36:15.435Z,12.77
2023-03-26T00:41:26.298Z,12.30
2023-03-26T00:46:31.575Z,11.76
2023-03-26T00:51:35.077Z,13.51
2023-03-26T00:56:38.967Z,11.88
2023-03-26T01:01:41.851Z,12.06
2023-03-26T01:06:45.433Z,13.12
2023-03-26T01:11:49.733Z,11.42
2023-03-26T01:16:55.155Z,13.04
2023-03-26T01:21:59.093Z,12.27
2023-03-26T01:27:27.836Z,12.32
2023-03-26T01:32:53.159Z,12.34
2023-03-26T01:38:10.977Z,12.10
2023-03-26T01:43:39.807Z,13.96
2023-03-26T01:48:45.194Z,12.17
2023-03-26T01:53:48.521Z,11.78
2023-03-26T01:59:16.794Z,12.74
2023-03-26T02:04:35.046Z,11.62
2023-03-26T02:09:58.345Z,13.72
2023-03-26T02:15:02.260Z,12.46
2023-03-26T02:20:09.922Z,11.71
2023-03-26T02:25:16.419Z,12.69
2023-03-26T02:30:27.158Z,11.37
2023-03-26T02:35:29.866Z,12.62
2023-03-26T02:40:32.668Z,11.35
2023-03-26T02:45:35.469Z,12.77
2023-03-26T02:50:38.296Z,12.64
2023-03-26T02:55:41.067Z,11.45
2023-03-26T03:00:45.002Z,13.18
2023-03-26T03:05:47.650Z,12.86
2023-03-26T03:10:57.232Z,11.13
2023-03-26T03:15:59.906Z,12.85
2023-03-26T03:21:03.556Z,12.69
2023-03-26T03:26:13.019Z,11.24
2023-03-26T03:31:17.346Z,13.02
2023-03-26T03:36:22.737Z,11.69
2023-03-26T03:41:25.427Z,12.82
2023-03-26T03:46:28.712Z,13.01
2023-03-26T03:51:31.540Z,11.87
2023-03-26T03:56:34.300Z,13.52
2023-03-26T04:01:37.709Z,12.12
2023-03-26T04:06:40.452Z,12.77
2023-03-26T04:11:43.126Z,12.33
2023-03-26T04:16:46.062Z,12.67
2023-03-26T04:21:49.670Z,12.73
2023-03-26T04:26:52.418Z,11.90
2023-03-26T04:32:06.513Z,13.26
2023-03-26T04:37:16.621Z,11.74
2023-03-26T04:42:20.179Z,12.93
2023-03-26T04:47:23.632Z,11.39
2023-03-26T04:52:26.547Z,12.47
2023-03-26T04:57:39.499Z,13.01
2023-03-26T05:02:43.369Z,11.37
2023-03-26T05:07:46.114Z,13.00
2023-03-26T05:12:49.527Z,12.00
2023-03-26T05:17:52.311Z,11.58
2023-03-26T05:22:55.856Z,13.60
2023-03-26T05:27:58.581Z,12.62
2023-03-26T05:33:04.410Z,11.66
2023-03-26T05:38:07.351Z,13.46
2023-03-26T05:43:10.239Z,12.49
2023-03-26T05:48:13.024Z,11.96
2023-03-26T05:53:15.833Z,13.04
2023-03-26T05:58:18.464Z,11.86
2023-03-26T06:03:23.409Z,13.35
2023-03-26T06:08:26.727Z,12.76
2023-03-26T06:13:29.593Z,12.32
2023-03-26T06:18:32.835Z,13.05
2023-03-26T06:23:35.601Z,12.20
2023-03-26T06:28:38.298Z,13.01
2023-03-26T06:33:41.106Z,12.11
2023-03-26T06:38:43.790Z,13.39
2023-03-26T06:43:46.500Z,11.96
2023-03-26T06:48:49.396Z,13.14
2023-03-26T06:53:52.207Z,12.64
2023-03-26T06:58:54.895Z,12.22
2023-03-26T07:04:00.013Z,13.34
2023-03-26T07:09:03.421Z,12.13
2023-03-26T07:14:06.221Z,13.22
2023-03-26T07:19:08.976Z,11.99
2023-03-26T07:24:12.548Z,13.65
2023-03-26T07:29:35.178Z,13.02
2023-03-26T07:35:12.862Z,12.51
2023-03-26T07:40:37.828Z,13.52
2023-03-26T07:45:43.222Z,12.03
2023-03-26T07:50:47.083Z,13.61
2023-03-26T07:56:00.679Z,12.11
2023-03-26T08:01:46.290Z,13.21
2023-03-26T08:06:59.674Z,12.40
2023-03-26T08:12:45.516Z,12.69
2023-03-26T08:18:20.252Z,12.42
2023-03-26T08:23:50.672Z,12.80
2023-03-26T08:28:57.399Z,12.32
2023-03-26T08:34:00.458Z,13.16
2023-03-26T08:39:04.223Z,12.58
2023-03-26T08:44:25.984Z,12.56
2023-03-26T08:49:50.277Z,12.93
2023-03-26T08:55:14.882Z,12.10
2023-03-26T09:00:57.573Z,13.14
2023-03-26T09:06:33.299Z,11.96
2023-03-26T09:11:58.455Z,13.37
2023-03-26T09:17:13.520Z,12.01
2023-03-26T09:22:35.082Z,13.40
2023-03-26T09:27:56.483Z,12.23
2023-03-26T09:33:32.881Z,13.05
2023-03-26T09:38:35.461Z,12.31
2023-03-26T09:43:54.476Z,12.02
2023-03-26T09:49:21.528Z,13.47
2023-03-26T09:54:52.182Z,11.89
2023-03-26T10:00:26.056Z,13.48
2023-03-26T10:06:12.947Z,14.62
2023-03-26T10:11:43.358Z,13.09
2023-03-26T10:17:07.902Z,14.57
2023-03-26T10:22:26.022Z,13.69
2023-03-26T10:27:37.634Z,13.48
2023-03-26T10:32:52.356Z,15.10
2023-03-26T10:38:16.083Z,13.57
2023-03-26T10:43:47.985Z,13.98
2023-03-26T10:49:28.292Z,14.91
2023-03-26T10:54:58.038Z,12.89
2023-03-26T11:00:25.542Z,14.38
2023-03-26T11:05:51.403Z,14.43
2023-03-26T11:11:10.453Z,13.01
2023-03-26T11:16:30.660Z,14.32
2023-03-26T11:21:42.968Z,15.82
2023-03-26T11:27:15.333Z,14.31
2023-03-26T11:32:32.618Z,13.13
2023-03-26T11:37:41.728Z,12.25
2023-03-26T11:42:45.395Z,13.65
2023-03-26T11:47:56.162Z,14.45
2023-03-26T11:53:23.953Z,13.71
2023-03-26T11:59:01.138Z,13.65
2023-03-26T12:04:15.821Z,13.23
2023-03-26T12:09:20.248Z,12.61
2023-03-26T12:14:26.654Z,12.05
2023-03-26T12:19:39.450Z,11.31
2023-03-26T12:24:42.428Z,11.24
2023-03-26T12:29:51.600Z,12.73
2023-03-26T12:34:54.362Z,11.28
2023-03-26T12:40:25.912Z,12.82
2023-03-26T12:45:38.581Z,11.76
2023-03-26T12:51:06.577Z,12.62
2023-03-26T12:56:21.593Z,16.03
2023-03-26T13:01:50.444Z,15.30
2023-03-26T13:07:15.380Z,15.27
2023-03-26T13:12:48.284Z,16.83
2023-03-26T13:18:21.987Z,16.64
2023-03-26T13:23:42.380Z,16.88
2023-03-26T13:28:52.703Z,17.26
2023-03-26T13:34:13.494Z,16.47
2023-03-26T13:39:37.218Z,14.94
2023-03-26T13:45:05.126Z,13.65
2023-03-26T13:50:25.548Z,12.92
2023-03-26T13:55:44.803Z,12.41
2023-03-26T14:01:18.012Z,15.13
2023-03-26T14:06:43.666Z,14.97
2023-03-26T14:12:21.013Z,13.11
2023-03-26T14:17:28.658Z,12.28
2023-03-26T14:22:56.892Z,13.81
2023-03-26T14:28:02.361Z,15.52
2023-03-26T14:33:38.550Z,13.68
2023-03-26T14:38:47.341Z,12.43
2023-03-26T14:44:48.104Z,11.72
2023-03-26T14:50:13.904Z,12.73
2023-03-26T14:55:56.812Z,12.34
2023-03-26T15:01:22.740Z,11.21
2023-03-26T15:06:43.672Z,10.73
2023-03-26T15:11:53.542Z,13.27
2023-03-26T15:17:40.612Z,13.89
2023-03-26T15:22:54.041Z,12.23
2023-03-26T15:27:57.561Z,11.44
2023-03-26T15:33:18.685Z,15.14
2023-03-26T15:38:41.748Z,16.25
2023-03-26T15:49:42.994Z,13.08
2023-03-26T15:55:27.871Z,12.02
2023-03-26T16:00:35.572Z,11.19
2023-03-26T16:05:56.921Z,12.44
2023-03-26T16:11:00.592Z,15.83
2023-03-26T16:16:03.746Z,15.37
2023-03-26T16:21:32.120Z,15.28
2023-03-26T16:26:44.736Z,14.15
2023-03-26T16:32:19.938Z,12.90
2023-03-26T16:37:37.903Z,11.87
2023-03-26T16:42:45.814Z,11.13
2023-03-26T16:48:01.660Z,12.03
2023-03-26T16:53:29.615Z,15.07
2023-03-26T16:59:06.987Z,14.12
2023-03-26T17:04:17.434Z,12.34
2023-03-26T17:09:51.903Z,11.46
2023-03-26T17:15:01.101Z,10.78
2023-03-26T17:20:16.394Z,11.65
2023-03-26T17:25:32.743Z,14.72
2023-03-26T17:30:44.824Z,13.76
2023-03-26T17:35:50.619Z,11.98
2023-03-26T17:40:59.640Z,10.81
2023-03-26T17:46:33.374Z,12.42
2023-03-26T17:51:48.031Z,14.88
2023-03-26T17:56:53.195Z,13.61
2023-03-26T18:01:59.951Z,11.80
2023-03-26T18:07:04.231Z,10.79
2023-03-26T18:12:28.129Z,10.13
2023-03-26T18:17:40.252Z,11.15
2023-03-26T18:22:44.473Z,14.17
2023-03-26T18:27:48.725Z,14.41
2023-03-26T18:33:03.595Z,12.27
2023-03-26T18:38:06.605Z,10.83
2023-03-26T18:43:28.877Z,11.26
2023-03-26T18:48:37.176Z,12.98
2023-03-26T18:53:54.388Z,11.23
2023-03-26T18:59:02.779Z,11.41
2023-03-26T19:04:08.336Z,14.00
2023-03-26T19:09:28.033Z,13.88
2023-03-26T19:14:37.028Z,11.52
2023-03-26T19:19:39.976Z,11.30
2023-03-26T19:24:42.986Z,13.77
2023-03-26T19:29:46.646Z,13.82
2023-03-26T19:34:50.838Z,11.57
2023-03-26T19:39:55.620Z,10.12
2023-03-26T19:44:59.596Z,10.55
2023-03-26T19:50:19.597Z,12.93
2023-03-26T19:55:24.209Z,11.28
2023-03-26T20:00:26.982Z,9.65
2023-03-26T20:05:34.150Z,10.01
2023-03-26T20:10:36.871Z,12.76
2023-03-26T20:15:40.968Z,12.12
2023-03-26T20:20:43.835Z,10.04
2023-03-26T20:25:53.719Z,8.83
2023-03-26T20:30:57.116Z,8.03
2023-03-26T20:36:00.519Z,8.97
2023-03-26T20:41:04.312Z,12.12
2023-03-26T20:46:07.320Z,10.75
2023-03-26T20:51:15.648Z,8.97
2023-03-26T20:56:20.662Z,7.93
2023-03-26T21:01:23.870Z,7.43
2023-03-26T21:06:26.826Z,10.12
2023-03-26T21:11:45.854Z,11.16
2023-03-26T21:16:49.077Z,9.17
2023-03-26T21:22:07.955Z,8.03
2023-03-26T21:27:26.510Z,7.25
2023-03-26T21:32:31.656Z,6.67
2023-03-26T21:37:35.124Z,6.30
2023-03-26T21:42:38.087Z,6.03
2023-03-26T21:47:42.100Z,7.24
2023-03-26T21:52:48.554Z,10.93
2023-03-26T21:57:54.124Z,10.01
2023-03-26T22:03:05.941Z,8.27
2023-03-26T22:08:21.537Z,7.31
2023-03-26T22:13:24.825Z,6.66
2023-03-26T22:18:30.415Z,6.23
2023-03-26T22:23:34.326Z,5.89
2023-03-26T22:28:37.201Z,6.88
2023-03-26T22:33:43.227Z,10.26
2023-03-26T22:38:46.635Z,10.63
2023-03-26T22:43:52.192Z,8.62
2023-03-26T22:48:56.033Z,7.49
2023-03-26T22:53:58.723Z,6.75
2023-03-26T22:59:01.399Z,6.14
2023-03-26T23:04:04.176Z,5.67
2023-03-26T23:09:07.178Z,5.33
2023-03-26T23:14:10.041Z,6.39
2023-03-26T23:19:12.788Z,9.85
2023-03-26T23:24:15.845Z,9.80
2023-03-26T23:29:19.126Z,7.71
2023-03-26T23:34:22.880Z,6.54
2023-03-26T23:39:26.917Z,5.77
2023-03-26T23:44:29.713Z,5.26
2023-03-26T23:49:32.382Z,6.28
2023-03-26T23:54:35.725Z,9.50
2023-03-26T23:59:38.630Z,9.94
